createdAt,value
2022-11-30T00:00:35.819Z,1015.47
2022-11-30T00:01:35.787Z,1015.47
2022-11-30T00:02:35.920Z,1015.43
2022-11-30T00:03:35.768Z,1015.50
2022-11-30T00:04:35.772Z,1015.48
2022-11-30T00:05:35.741Z,1015.45
2022-11-30T00:06:35.733Z,1015.46
2022-11-30T00:07:35.766Z,1015.51
2022-11-30T00:08:35.719Z,1015.52
2022-11-30T00:09:35.736Z,1015.52
2022-11-30T00:10:35.685Z,1015.54
2022-11-30T00:11:35.680Z,1015.53
2022-11-30T00:12:35.668Z,1015.56
2022-11-30T00:13:35.657Z,1015.51
2022-11-30T00:14:35.655Z,1015.53
2022-11-30T00:15:35.640Z,1015.51
2022-11-30T00:16:35.668Z,1015.55
2022-11-30T00:17:35.623Z,1015.54
2022-11-30T00:18:35.620Z,1015.50
2022-11-30T00:19:35.594Z,1015.49
2022-11-30T00:20:35.586Z,1015.47
2022-11-30T00:21:35.564Z,1015.49
2022-11-30T00:22:42.977Z,1015.46
2022-11-30T00:23:35.559Z,1015.49
2022-11-30T00:24:35.530Z,1015.47
2022-11-30T00:25:35.546Z,1015.47
2022-11-30T00:26:35.509Z,1015.44
2022-11-30T00:27:35.490Z,1015.49
2022-11-30T00:28:35.491Z,1015.48
2022-11-30T00:29:35.474Z,1015.48
2022-11-30T00:30:35.490Z,1015.42
2022-11-30T00:31:35.451Z,1015.39
2022-11-30T00:32:35.436Z,1015.44
2022-11-30T00:33:35.450Z,1015.45
2022-11-30T00:34:35.435Z,1015.47
2022-11-30T00:35:35.402Z,1015.45
2022-11-30T00:36:35.407Z,1015.45
2022-11-30T00:37:35.399Z,1015.42
2022-11-30T00:38:35.372Z,1015.40
2022-11-30T00:39:35.856Z,1015.41
2022-11-30T00:40:35.348Z,1015.49
2022-11-30T00:41:35.346Z,1015.39
2022-11-30T00:42:35.341Z,1015.39
2022-11-30T00:43:35.314Z,1015.42
2022-11-30T00:44:35.296Z,1015.39
2022-11-30T00:45:35.282Z,1015.38
2022-11-30T00:46:35.345Z,1015.41
2022-11-30T00:47:35.282Z,1015.39
2022-11-30T00:48:35.256Z,1015.39
2022-11-30T00:49:35.257Z,1015.37
2022-11-30T00:50:35.252Z,1015.37
2022-11-30T00:51:35.220Z,1015.34
2022-11-30T00:52:35.219Z,1015.34
2022-11-30T00:53:35.194Z,1015.30
2022-11-30T00:54:35.193Z,1015.36
2022-11-30T00:55:35.182Z,1015.31
2022-11-30T00:56:35.168Z,1015.27
2022-11-30T00:57:35.167Z,1015.29
2022-11-30T00:58:35.159Z,1015.33
2022-11-30T00:59:35.129Z,1015.25
2022-11-30T01:00:35.132Z,1015.29
2022-11-30T01:01:35.157Z,1015.26
2022-11-30T01:02:35.206Z,1015.35
2022-11-30T01:03:35.084Z,1015.22
2022-11-30T01:04:35.086Z,1015.36
2022-11-30T01:05:35.059Z,1015.35
2022-11-30T01:06:35.069Z,1015.34
2022-11-30T01:07:35.150Z,1015.27
2022-11-30T01:08:35.042Z,1015.24
2022-11-30T01:09:35.014Z,1015.34
2022-11-30T01:10:35.007Z,1015.31
2022-11-30T01:11:34.998Z,1015.32
2022-11-30T01:12:35.003Z,1015.31
2022-11-30T01:13:34.970Z,1015.36
2022-11-30T01:14:34.963Z,1015.32
2022-11-30T01:15:35.003Z,1015.34
2022-11-30T01:16:34.936Z,1015.36
2022-11-30T01:17:34.942Z,1015.36
2022-11-30T01:18:34.916Z,1015.37
2022-11-30T01:19:34.904Z,1015.34
2022-11-30T01:20:34.894Z,1015.44
2022-11-30T01:21:34.879Z,1015.36
2022-11-30T01:22:34.900Z,1015.45
2022-11-30T01:23:34.875Z,1015.46
2022-11-30T01:24:34.851Z,1015.52
2022-11-30T01:25:34.845Z,1015.53
2022-11-30T01:26:34.839Z,1015.59
2022-11-30T01:27:34.822Z,1015.58
2022-11-30T01:28:34.808Z,1015.56
2022-11-30T01:29:34.796Z,1015.59
2022-11-30T01:30:34.820Z,1015.61
2022-11-30T01:31:34.766Z,1015.58
2022-11-30T01:32:34.774Z,1015.52
2022-11-30T01:33:34.753Z,1015.51
2022-11-30T01:34:34.733Z,1015.53
2022-11-30T01:35:34.719Z,1015.51
2022-11-30T01:36:34.719Z,1015.50
2022-11-30T01:37:34.699Z,1015.47
2022-11-30T01:38:34.713Z,1015.50
2022-11-30T01:39:34.691Z,1015.44
2022-11-30T01:40:34.680Z,1015.46
2022-11-30T01:41:34.653Z,1015.50
2022-11-30T01:42:34.655Z,1015.53
2022-11-30T01:43:34.651Z,1015.45
2022-11-30T01:44:34.617Z,1015.49
2022-11-30T01:45:34.607Z,1015.52
2022-11-30T01:46:34.629Z,1015.50
2022-11-30T01:47:34.610Z,1015.46
2022-11-30T01:48:34.594Z,1015.52
2022-11-30T01:49:34.572Z,1015.45
2022-11-30T01:50:34.551Z,1015.49
2022-11-30T01:51:34.540Z,1015.53
2022-11-30T01:52:34.533Z,1015.43
2022-11-30T01:53:34.521Z,1015.45
2022-11-30T01:54:34.550Z,1015.43
2022-11-30T01:55:34.494Z,1015.43
2022-11-30T01:56:34.486Z,1015.42
2022-11-30T01:57:34.479Z,1015.38
2022-11-30T01:58:34.463Z,1015.41
2022-11-30T01:59:34.477Z,1015.40
2022-11-30T02:00:34.456Z,1015.36
2022-11-30T02:01:34.485Z,1015.42
2022-11-30T02:02:34.458Z,1015.40
2022-11-30T02:03:34.409Z,1015.41
2022-11-30T02:04:34.404Z,1015.42
2022-11-30T02:05:34.383Z,1015.45
2022-11-30T02:06:34.381Z,1015.46
2022-11-30T02:07:34.471Z,1015.44
2022-11-30T02:08:34.495Z,1015.43
2022-11-30T02:09:34.345Z,1015.46
2022-11-30T02:10:34.356Z,1015.46
2022-11-30T02:11:34.327Z,1015.43
2022-11-30T02:12:34.305Z,1015.45
2022-11-30T02:13:34.290Z,1015.44
2022-11-30T02:14:34.283Z,1015.42
2022-11-30T02:15:34.309Z,1015.44
2022-11-30T02:16:34.265Z,1015.44
2022-11-30T02:17:34.261Z,1015.42
2022-11-30T02:18:34.238Z,1015.48
2022-11-30T02:19:34.227Z,1015.42
2022-11-30T02:20:34.215Z,1015.48
2022-11-30T02:21:34.225Z,1015.49
2022-11-30T02:22:34.214Z,1015.44
2022-11-30T02:23:39.506Z,1015.48
2022-11-30T02:24:34.183Z,1015.52
2022-11-30T02:25:34.155Z,1015.46
2022-11-30T02:26:34.183Z,1015.51
2022-11-30T02:27:34.134Z,1015.52
2022-11-30T02:28:34.126Z,1015.47
2022-11-30T02:29:34.118Z,1015.52
2022-11-30T02:30:34.115Z,1015.53
2022-11-30T02:31:34.100Z,1015.46
2022-11-30T02:32:34.106Z,1015.53
2022-11-30T02:33:34.066Z,1015.55
2022-11-30T02:34:34.072Z,1015.47
2022-11-30T02:35:34.042Z,1015.51
2022-11-30T02:36:34.034Z,1015.50
2022-11-30T02:37:34.043Z,1015.46
2022-11-30T02:38:34.030Z,1015.47
2022-11-30T02:39:33.998Z,1015.54
2022-11-30T02:40:33.995Z,1015.47
2022-11-30T02:41:37.854Z,1015.50
2022-11-30T02:42:34.097Z,1015.47
2022-11-30T02:43:33.966Z,1015.46
2022-11-30T02:44:33.945Z,1015.49
2022-11-30T02:45:33.928Z,1015.46
2022-11-30T02:46:34.026Z,1015.40
2022-11-30T02:47:33.912Z,1015.46
2022-11-30T02:48:33.927Z,1015.50
2022-11-30T02:49:33.894Z,1015.52
2022-11-30T02:50:33.878Z,1015.46
2022-11-30T02:51:33.872Z,1015.49
2022-11-30T02:52:33.854Z,1015.49
2022-11-30T02:53:33.839Z,1015.51
2022-11-30T02:54:33.863Z,1015.54
2022-11-30T02:55:33.818Z,1015.54
2022-11-30T02:56:33.811Z,1015.55
2022-11-30T02:57:33.795Z,1015.52
2022-11-30T02:58:33.819Z,1015.62
2022-11-30T02:59:33.786Z,1015.60
2022-11-30T03:00:33.778Z,1015.56
2022-11-30T03:01:33.791Z,1015.65
2022-11-30T03:02:33.783Z,1015.65
2022-11-30T03:03:33.727Z,1015.63
2022-11-30T03:04:33.727Z,1015.70
2022-11-30T03:05:33.708Z,1015.67
2022-11-30T03:06:33.702Z,1015.73
2022-11-30T03:07:33.756Z,1015.68
2022-11-30T03:08:33.677Z,1015.75
2022-11-30T03:09:33.673Z,1015.71
2022-11-30T03:10:33.650Z,1015.69
2022-11-30T03:11:33.640Z,1015.70
2022-11-30T03:12:33.627Z,1015.75
2022-11-30T03:13:33.645Z,1015.72
2022-11-30T03:14:33.628Z,1015.71
2022-11-30T03:15:33.651Z,1015.74
2022-11-30T03:16:33.580Z,1015.65
2022-11-30T03:17:33.579Z,1015.72
2022-11-30T03:18:33.559Z,1015.68
2022-11-30T03:19:33.552Z,1015.73
2022-11-30T03:20:33.547Z,1015.72
2022-11-30T03:21:33.535Z,1015.69
2022-11-30T03:22:33.516Z,1015.76
2022-11-30T03:23:33.515Z,1015.73
2022-11-30T03:24:33.498Z,1015.77
2022-11-30T03:25:33.485Z,1015.76
2022-11-30T03:26:33.477Z,1015.79
2022-11-30T03:27:33.460Z,1015.79
2022-11-30T03:28:33.453Z,1015.81
2022-11-30T03:29:33.441Z,1015.79
2022-11-30T03:30:33.476Z,1015.85
2022-11-30T03:31:33.459Z,1015.79
2022-11-30T03:32:33.398Z,1015.80
2022-11-30T03:33:33.388Z,1015.80
2022-11-30T03:34:33.391Z,1015.77
2022-11-30T03:35:33.385Z,1015.74
2022-11-30T03:36:33.384Z,1015.77
2022-11-30T03:37:33.348Z,1015.70
2022-11-30T03:38:33.329Z,1015.74
2022-11-30T03:39:33.325Z,1015.72
2022-11-30T03:40:33.322Z,1015.68
2022-11-30T03:41:33.304Z,1015.72
2022-11-30T03:42:33.294Z,1015.74
2022-11-30T03:43:33.278Z,1015.79
2022-11-30T03:44:33.266Z,1015.70
2022-11-30T03:45:33.266Z,1015.77
2022-11-30T03:46:33.339Z,1015.78
2022-11-30T03:47:33.246Z,1015.83
2022-11-30T03:48:33.218Z,1015.83
2022-11-30T03:49:33.212Z,1015.81
2022-11-30T03:50:33.208Z,1015.83
2022-11-30T03:51:33.189Z,1015.86
2022-11-30T03:52:33.181Z,1015.81
2022-11-30T03:53:33.164Z,1015.82
2022-11-30T03:54:33.154Z,1015.83
2022-11-30T03:55:33.146Z,1015.82
2022-11-30T03:56:33.129Z,1015.78
2022-11-30T03:57:33.123Z,1015.77
2022-11-30T03:58:33.115Z,1015.79
2022-11-30T03:59:33.106Z,1015.78
2022-11-30T04:00:33.101Z,1015.79
2022-11-30T04:01:33.125Z,1015.81
2022-11-30T04:02:33.143Z,1015.74
2022-11-30T04:03:33.053Z,1015.80
2022-11-30T04:04:33.038Z,1015.83
2022-11-30T04:05:33.045Z,1015.84
2022-11-30T04:06:33.027Z,1015.84
2022-11-30T04:07:33.018Z,1015.85
2022-11-30T04:08:32.998Z,1015.88
2022-11-30T04:09:32.989Z,1015.81
2022-11-30T04:10:32.971Z,1015.84
2022-11-30T04:11:32.964Z,1015.82
2022-11-30T04:12:32.957Z,1015.87
2022-11-30T04:13:32.943Z,1015.82
2022-11-30T04:14:32.926Z,1015.82
2022-11-30T04:15:32.918Z,1015.85
2022-11-30T04:16:32.988Z,1015.86
2022-11-30T04:17:32.922Z,1015.84
2022-11-30T04:18:32.899Z,1015.88
2022-11-30T04:19:32.872Z,1015.82
2022-11-30T04:20:36.055Z,1015.84
2022-11-30T04:21:33.913Z,1015.84
2022-11-30T04:22:32.839Z,1015.85
2022-11-30T04:23:32.837Z,1015.83
2022-11-30T04:24:32.813Z,1015.79
2022-11-30T04:25:32.805Z,1015.76
2022-11-30T04:26:32.790Z,1015.79
2022-11-30T04:27:32.799Z,1015.77
2022-11-30T04:28:32.790Z,1015.79
2022-11-30T04:29:32.757Z,1015.74
2022-11-30T04:30:32.745Z,1015.74
2022-11-30T04:31:32.809Z,1015.76
2022-11-30T04:32:32.731Z,1015.79
2022-11-30T04:33:32.835Z,1015.82
2022-11-30T04:34:32.719Z,1015.77
2022-11-30T04:35:32.689Z,1015.81
2022-11-30T04:36:32.680Z,1015.78
2022-11-30T04:37:32.668Z,1015.83
2022-11-30T04:38:32.654Z,1015.79
2022-11-30T04:39:32.667Z,1015.77
2022-11-30T04:40:32.637Z,1015.80
2022-11-30T04:41:32.622Z,1015.74
2022-11-30T04:42:32.613Z,1015.76
2022-11-30T04:43:32.604Z,1015.77
2022-11-30T04:44:32.584Z,1015.79
2022-11-30T04:45:35.595Z,1015.77
2022-11-30T04:46:32.610Z,1015.72
2022-11-30T04:47:32.573Z,1015.76
2022-11-30T04:48:32.553Z,1015.73
2022-11-30T04:49:32.543Z,1015.71
2022-11-30T04:50:32.545Z,1015.67
2022-11-30T04:51:32.509Z,1015.66
2022-11-30T04:52:32.502Z,1015.66
2022-11-30T04:53:32.504Z,1015.70
2022-11-30T04:54:32.480Z,1015.70
2022-11-30T04:55:32.475Z,1015.63
2022-11-30T04:56:32.450Z,1015.61
2022-11-30T04:57:32.444Z,1015.67
2022-11-30T04:58:32.425Z,1015.68
2022-11-30T04:59:32.427Z,1015.67
2022-11-30T05:00:32.421Z,1015.62
2022-11-30T05:01:32.426Z,1015.62
2022-11-30T05:02:32.381Z,1015.64
2022-11-30T05:03:32.372Z,1015.65
2022-11-30T05:04:32.428Z,1015.67
2022-11-30T05:05:32.359Z,1015.74
2022-11-30T05:06:32.376Z,1015.70
2022-11-30T05:07:32.396Z,1015.72
2022-11-30T05:08:32.314Z,1015.74
2022-11-30T05:09:32.308Z,1015.77
2022-11-30T05:10:32.294Z,1015.70
2022-11-30T05:11:32.292Z,1015.77
2022-11-30T05:12:32.287Z,1015.72
2022-11-30T05:13:32.260Z,1015.74
2022-11-30T05:14:32.254Z,1015.81
2022-11-30T05:15:32.239Z,1015.78
2022-11-30T05:16:32.296Z,1015.74
2022-11-30T05:17:32.216Z,1015.74
2022-11-30T05:18:32.212Z,1015.75
2022-11-30T05:19:32.191Z,1015.78
2022-11-30T05:20:32.176Z,1015.79
2022-11-30T05:21:32.171Z,1015.74
2022-11-30T05:22:32.186Z,1015.73
2022-11-30T05:23:32.148Z,1015.77
2022-11-30T05:24:32.163Z,1015.73
2022-11-30T05:25:32.126Z,1015.74
2022-11-30T05:26:32.111Z,1015.71
2022-11-30T05:27:32.113Z,1015.74
2022-11-30T05:28:32.100Z,1015.77
2022-11-30T05:29:32.082Z,1015.82
2022-11-30T05:30:32.073Z,1015.83
2022-11-30T05:31:32.116Z,1015.86
2022-11-30T05:32:32.056Z,1015.83
2022-11-30T05:33:32.034Z,1015.86
2022-11-30T05:34:41.287Z,1015.88
2022-11-30T05:35:33.009Z,1015.86
2022-11-30T05:36:32.006Z,1015.93
2022-11-30T05:37:32.002Z,1015.90
2022-11-30T05:38:31.995Z,1015.90
2022-11-30T05:39:31.971Z,1015.89
2022-11-30T05:40:31.952Z,1015.87
2022-11-30T05:41:31.942Z,1015.88
2022-11-30T05:42:31.938Z,1015.95
2022-11-30T05:43:31.930Z,1015.97
2022-11-30T05:44:31.910Z,1015.95
2022-11-30T05:45:31.904Z,1016.01
2022-11-30T05:46:31.938Z,1016.03
2022-11-30T05:47:31.878Z,1016.08
2022-11-30T05:48:31.869Z,1016.00
2022-11-30T05:49:31.862Z,1016.04
2022-11-30T05:50:31.840Z,1016.07
2022-11-30T05:51:31.830Z,1016.10
2022-11-30T05:52:31.816Z,1016.16
2022-11-30T05:53:31.816Z,1016.16
2022-11-30T05:54:31.847Z,1016.18
2022-11-30T05:55:31.799Z,1016.16
2022-11-30T05:56:31.787Z,1016.17
2022-11-30T05:57:31.764Z,1016.19
2022-11-30T05:58:31.768Z,1016.16
2022-11-30T05:59:31.740Z,1016.23
2022-11-30T06:00:31.723Z,1016.25
2022-11-30T06:01:31.721Z,1016.18
2022-11-30T06:02:31.778Z,1016.29
2022-11-30T06:03:31.728Z,1016.23
2022-11-30T06:04:31.698Z,1016.32
2022-11-30T06:05:31.672Z,1016.28
2022-11-30T06:06:31.658Z,1016.30
2022-11-30T06:07:31.821Z,1016.25
2022-11-30T06:08:31.639Z,1016.32
2022-11-30T06:09:31.638Z,1016.34
2022-11-30T06:10:31.639Z,1016.34
2022-11-30T06:11:31.603Z,1016.26
2022-11-30T06:12:31.591Z,1016.30
2022-11-30T06:13:31.583Z,1016.26
2022-11-30T06:14:31.582Z,1016.33
2022-11-30T06:15:31.579Z,1016.37
2022-11-30T06:16:31.626Z,1016.31
2022-11-30T06:17:31.539Z,1016.28
2022-11-30T06:18:31.525Z,1016.31
2022-11-30T06:19:31.527Z,1016.32
2022-11-30T06:20:31.516Z,1016.33
2022-11-30T06:21:31.499Z,1016.32
2022-11-30T06:22:31.477Z,1016.27
2022-11-30T06:23:38.549Z,1016.36
2022-11-30T06:24:31.454Z,1016.33
2022-11-30T06:25:31.449Z,1016.40
2022-11-30T06:26:31.514Z,1016.36
2022-11-30T06:27:31.429Z,1016.37
2022-11-30T06:28:31.408Z,1016.48
2022-11-30T06:29:31.404Z,1016.44
2022-11-30T06:30:31.400Z,1016.36
2022-11-30T06:31:31.485Z,1016.36
2022-11-30T06:32:31.371Z,1016.39
2022-11-30T06:33:31.362Z,1016.40
2022-11-30T06:34:31.345Z,1016.32
2022-11-30T06:35:31.340Z,1016.41
2022-11-30T06:36:35.683Z,1016.34
2022-11-30T06:37:32.326Z,1016.36
2022-11-30T06:38:31.299Z,1016.41
2022-11-30T06:40:04.127Z,1016.39
2022-11-30T06:40:32.283Z,1016.33
2022-11-30T06:41:31.270Z,1016.38
2022-11-30T06:42:31.283Z,1016.36
2022-11-30T06:43:31.257Z,1016.40
2022-11-30T06:44:31.227Z,1016.39
2022-11-30T06:45:31.258Z,1016.34
2022-11-30T06:46:31.207Z,1016.40
2022-11-30T06:47:31.228Z,1016.45
2022-11-30T06:48:31.190Z,1016.41
2022-11-30T06:49:31.193Z,1016.42
2022-11-30T06:50:31.162Z,1016.47
2022-11-30T06:51:31.157Z,1016.45
2022-11-30T06:52:31.161Z,1016.48
2022-11-30T06:53:31.138Z,1016.43
2022-11-30T06:54:31.124Z,1016.46
2022-11-30T06:55:31.112Z,1016.41
2022-11-30T06:56:31.101Z,1016.51
2022-11-30T06:57:31.105Z,1016.47
2022-11-30T06:58:31.097Z,1016.51
2022-11-30T06:59:31.072Z,1016.46
2022-11-30T07:00:31.072Z,1016.43
2022-11-30T07:01:31.078Z,1016.47
2022-11-30T07:02:31.030Z,1016.49
2022-11-30T07:03:31.021Z,1016.48
2022-11-30T07:04:31.038Z,1016.58
2022-11-30T07:05:30.995Z,1016.49
2022-11-30T07:06:30.990Z,1016.52
2022-11-30T07:07:31.022Z,1016.48
2022-11-30T07:08:30.971Z,1016.53
2022-11-30T07:09:30.966Z,1016.54
2022-11-30T07:10:30.935Z,1016.51
2022-11-30T07:11:30.939Z,1016.58
2022-11-30T07:12:30.939Z,1016.61
2022-11-30T07:13:30.911Z,1016.64
2022-11-30T07:14:30.915Z,1016.60
2022-11-30T07:15:30.881Z,1016.63
2022-11-30T07:16:30.895Z,1016.62
2022-11-30T07:17:30.863Z,1016.67
2022-11-30T07:18:32.218Z,1016.64
2022-11-30T07:19:30.841Z,1016.66
2022-11-30T07:20:30.822Z,1016.68
2022-11-30T07:21:30.812Z,1016.61
2022-11-30T07:22:30.817Z,1016.70
2022-11-30T07:23:30.792Z,1016.67
2022-11-30T07:24:30.795Z,1016.68
2022-11-30T07:25:30.787Z,1016.76
2022-11-30T07:26:30.756Z,1016.73
2022-11-30T07:27:30.754Z,1016.75
2022-11-30T07:28:30.744Z,1016.71
2022-11-30T07:29:30.728Z,1016.72
2022-11-30T07:30:30.731Z,1016.84
2022-11-30T07:31:30.857Z,1016.76
2022-11-30T07:32:30.707Z,1016.78
2022-11-30T07:33:30.679Z,1016.85
2022-11-30T07:34:30.674Z,1016.80
2022-11-30T07:35:30.658Z,1016.86
2022-11-30T07:36:30.654Z,1016.88
2022-11-30T07:37:30.655Z,1016.90
2022-11-30T07:38:30.624Z,1016.86
2022-11-30T07:39:30.617Z,1016.95
2022-11-30T07:40:30.603Z,1016.89
2022-11-30T07:41:30.594Z,1016.92
2022-11-30T07:42:30.576Z,1016.93
2022-11-30T07:43:30.575Z,1016.94
2022-11-30T07:44:30.576Z,1016.96
2022-11-30T07:45:30.602Z,1016.94
2022-11-30T07:46:30.558Z,1016.92
2022-11-30T07:47:30.518Z,1017.00
2022-11-30T07:48:30.524Z,1016.93
2022-11-30T07:49:30.519Z,1016.96
2022-11-30T07:50:30.486Z,1017.02
2022-11-30T07:51:30.479Z,1016.99
2022-11-30T07:52:30.486Z,1017.02
2022-11-30T07:53:30.447Z,1016.95
2022-11-30T07:54:30.454Z,1017.03
2022-11-30T07:55:30.444Z,1017.06
2022-11-30T07:56:30.416Z,1017.00
2022-11-30T07:57:30.429Z,1017.04
2022-11-30T07:58:30.396Z,1017.07
2022-11-30T07:59:30.392Z,1017.02
2022-11-30T08:00:30.373Z,1017.05
2022-11-30T08:01:30.580Z,1017.07
2022-11-30T08:02:30.418Z,1016.98
2022-11-30T08:03:36.459Z,1017.06
2022-11-30T08:04:31.391Z,1017.06
2022-11-30T08:05:30.322Z,1017.11
2022-11-30T08:06:30.307Z,1017.09
2022-11-30T08:07:30.337Z,1017.09
2022-11-30T08:08:30.305Z,1017.08
2022-11-30T08:09:30.287Z,1017.14
2022-11-30T08:10:30.259Z,1017.11
2022-11-30T08:11:30.253Z,1017.07
2022-11-30T08:12:30.250Z,1017.16
2022-11-30T08:13:30.219Z,1017.13
2022-11-30T08:14:30.214Z,1017.14
2022-11-30T08:15:32.888Z,1017.18
2022-11-30T08:16:30.251Z,1017.12
2022-11-30T08:17:30.183Z,1017.19
2022-11-30T08:18:30.194Z,1017.21
2022-11-30T08:19:30.176Z,1017.19
2022-11-30T08:20:30.164Z,1017.16
2022-11-30T08:21:30.131Z,1017.16
2022-11-30T08:22:30.121Z,1017.15
2022-11-30T08:23:30.121Z,1017.22
2022-11-30T08:24:30.171Z,1017.21
2022-11-30T08:25:30.102Z,1017.15
2022-11-30T08:26:30.097Z,1017.23
2022-11-30T08:27:30.065Z,1017.23
2022-11-30T08:28:30.053Z,1017.19
2022-11-30T08:29:30.050Z,1017.23
2022-11-30T08:30:32.782Z,1017.21
2022-11-30T08:31:30.083Z,1017.27
2022-11-30T08:32:30.018Z,1017.26
2022-11-30T08:33:30.970Z,1017.28
2022-11-30T08:34:30.020Z,1017.31
2022-11-30T08:35:29.978Z,1017.27
2022-11-30T08:36:29.993Z,1017.30
2022-11-30T08:37:29.959Z,1017.31
2022-11-30T08:38:29.947Z,1017.31
2022-11-30T08:39:29.935Z,1017.29
2022-11-30T08:40:29.925Z,1017.33
2022-11-30T08:41:29.909Z,1017.29
2022-11-30T08:42:29.894Z,1017.33
2022-11-30T08:43:29.881Z,1017.35
2022-11-30T08:44:29.883Z,1017.42
2022-11-30T08:45:29.881Z,1017.36
2022-11-30T08:47:30.938Z,1017.43
2022-11-30T08:48:29.848Z,1017.43
2022-11-30T08:49:29.826Z,1017.46
2022-11-30T08:50:29.856Z,1017.45
2022-11-30T08:51:42.165Z,1017.45
2022-11-30T08:52:30.795Z,1017.42
2022-11-30T08:53:29.788Z,1017.51
2022-11-30T08:54:29.765Z,1017.50
2022-11-30T08:55:29.753Z,1017.48
2022-11-30T08:56:29.749Z,1017.51
2022-11-30T08:57:29.726Z,1017.46
2022-11-30T08:58:29.716Z,1017.58
2022-11-30T08:59:29.723Z,1017.55
2022-11-30T09:00:29.705Z,1017.56
2022-11-30T09:01:31.607Z,1017.53
2022-11-30T09:02:29.745Z,1017.54
2022-11-30T09:03:29.657Z,1017.50
2022-11-30T09:04:29.645Z,1017.61
2022-11-30T09:05:29.634Z,1017.55
2022-11-30T09:06:29.656Z,1017.57
2022-11-30T09:07:29.664Z,1017.56
2022-11-30T09:08:29.605Z,1017.47
2022-11-30T09:09:29.596Z,1017.58
2022-11-30T09:10:29.589Z,1017.59
2022-11-30T09:11:29.577Z,1017.61
2022-11-30T09:12:29.558Z,1017.63
2022-11-30T09:13:30.241Z,1017.64
2022-11-30T09:14:29.530Z,1017.69
2022-11-30T09:15:29.531Z,1017.65
2022-11-30T09:16:29.518Z,1017.62
2022-11-30T09:17:29.509Z,1017.67
2022-11-30T09:18:29.497Z,1017.69
2022-11-30T09:19:29.473Z,1017.68
2022-11-30T09:20:29.463Z,1017.69
2022-11-30T09:21:29.463Z,1017.67
2022-11-30T09:22:29.472Z,1017.68
2022-11-30T09:23:29.436Z,1017.68
2022-11-30T09:24:29.416Z,1017.73
2022-11-30T09:25:29.403Z,1017.73
2022-11-30T09:26:29.393Z,1017.71
2022-11-30T09:27:29.392Z,1017.75
2022-11-30T09:28:29.395Z,1017.72
2022-11-30T09:29:29.356Z,1017.76
2022-11-30T09:30:29.390Z,1017.79
2022-11-30T09:31:29.347Z,1017.74
2022-11-30T09:32:29.330Z,1017.76
2022-11-30T09:33:29.328Z,1017.71
2022-11-30T09:34:29.304Z,1017.71
2022-11-30T09:35:29.296Z,1017.76
2022-11-30T09:36:29.326Z,1017.77
2022-11-30T09:37:29.283Z,1017.75
2022-11-30T09:38:29.285Z,1017.71
2022-11-30T09:39:29.283Z,1017.75
2022-11-30T09:40:33.991Z,1017.77
2022-11-30T09:41:30.229Z,1017.70
2022-11-30T09:42:29.218Z,1017.72
2022-11-30T09:43:29.199Z,1017.75
2022-11-30T09:44:29.430Z,1017.68
2022-11-30T09:45:29.178Z,1017.72
2022-11-30T09:46:29.284Z,1017.66
2022-11-30T09:47:31.869Z,1017.72
2022-11-30T09:48:29.148Z,1017.64
2022-11-30T09:49:29.152Z,1017.72
2022-11-30T09:50:29.143Z,1017.70
2022-11-30T09:51:29.121Z,1017.72
2022-11-30T09:52:29.112Z,1017.70
2022-11-30T09:53:29.886Z,1017.66
2022-11-30T09:54:29.144Z,1017.64
2022-11-30T09:55:29.079Z,1017.74
2022-11-30T09:56:29.064Z,1017.69
2022-11-30T09:57:29.062Z,1017.67
2022-11-30T09:58:29.030Z,1017.71
2022-11-30T09:59:29.034Z,1017.70
2022-11-30T10:00:29.017Z,1017.66
2022-11-30T10:01:32.630Z,1017.72
2022-11-30T10:02:29.146Z,1017.70
2022-11-30T10:03:29.104Z,1017.68
2022-11-30T10:04:28.971Z,1017.68
2022-11-30T10:05:28.965Z,1017.59
2022-11-30T10:06:28.939Z,1017.60
2022-11-30T10:07:29.014Z,1017.59
2022-11-30T10:08:28.920Z,1017.66
2022-11-30T10:09:28.901Z,1017.61
2022-11-30T10:10:33.339Z,1017.66
2022-11-30T10:11:28.883Z,1017.57
2022-11-30T10:12:28.873Z,1017.63
2022-11-30T10:13:28.857Z,1017.67
2022-11-30T10:14:28.853Z,1017.67
2022-11-30T10:15:28.860Z,1017.64
2022-11-30T10:16:28.917Z,1017.61
2022-11-30T10:17:28.817Z,1017.64
2022-11-30T10:18:28.809Z,1017.60
2022-11-30T10:19:28.801Z,1017.67
2022-11-30T10:20:28.779Z,1017.67
2022-11-30T10:21:28.782Z,1017.59
2022-11-30T10:22:28.755Z,1017.61
2022-11-30T10:23:28.755Z,1017.67
2022-11-30T10:24:28.737Z,1017.67
2022-11-30T10:25:28.722Z,1017.63
2022-11-30T10:26:28.733Z,1017.60
2022-11-30T10:27:28.713Z,1017.59
2022-11-30T10:29:29.685Z,1017.60
2022-11-30T10:30:28.669Z,1017.61
2022-11-30T10:31:28.700Z,1017.59
2022-11-30T10:32:28.655Z,1017.57
2022-11-30T10:33:31.460Z,1017.57
2022-11-30T10:34:29.620Z,1017.53
2022-11-30T10:35:28.607Z,1017.52
2022-11-30T10:36:28.626Z,1017.57
2022-11-30T10:37:28.597Z,1017.50
2022-11-30T10:38:28.583Z,1017.49
2022-11-30T10:39:28.575Z,1017.53
2022-11-30T10:40:28.558Z,1017.53
2022-11-30T10:41:28.555Z,1017.54
2022-11-30T10:42:28.572Z,1017.56
2022-11-30T10:43:28.521Z,1017.50
2022-11-30T10:44:28.519Z,1017.41
2022-11-30T10:45:28.502Z,1017.45
2022-11-30T10:46:28.578Z,1017.45
2022-11-30T10:47:28.482Z,1017.46
2022-11-30T10:48:28.460Z,1017.49
2022-11-30T10:49:28.452Z,1017.47
2022-11-30T10:50:28.443Z,1017.45
2022-11-30T10:51:28.439Z,1017.50
2022-11-30T10:52:28.427Z,1017.43
2022-11-30T10:53:28.410Z,1017.47
2022-11-30T10:54:28.394Z,1017.53
2022-11-30T10:55:28.395Z,1017.46
2022-11-30T10:56:28.387Z,1017.41
2022-11-30T10:57:28.362Z,1017.46
2022-11-30T10:58:28.376Z,1017.48
2022-11-30T10:59:28.334Z,1017.47
2022-11-30T11:00:28.343Z,1017.46
2022-11-30T11:01:28.369Z,1017.50
2022-11-30T11:02:28.343Z,1017.51
2022-11-30T11:03:28.298Z,1017.45
2022-11-30T11:04:28.358Z,1017.51
2022-11-30T11:05:28.275Z,1017.48
2022-11-30T11:06:28.259Z,1017.55
2022-11-30T11:07:28.362Z,1017.47
2022-11-30T11:08:28.239Z,1017.44
2022-11-30T11:09:28.237Z,1017.50
2022-11-30T11:10:28.227Z,1017.42
2022-11-30T11:11:28.203Z,1017.48
2022-11-30T11:12:28.192Z,1017.49
2022-11-30T11:13:28.179Z,1017.52
2022-11-30T11:14:28.192Z,1017.51
2022-11-30T11:15:28.182Z,1017.52
2022-11-30T11:16:28.223Z,1017.54
2022-11-30T11:17:28.137Z,1017.54
2022-11-30T11:18:28.123Z,1017.50
2022-11-30T11:19:28.112Z,1017.52
2022-11-30T11:20:28.098Z,1017.49
2022-11-30T11:21:28.087Z,1017.49
2022-11-30T11:22:28.075Z,1017.49
2022-11-30T11:23:28.064Z,1017.49
2022-11-30T11:24:28.053Z,1017.53
2022-11-30T11:25:28.055Z,1017.49
2022-11-30T11:26:28.043Z,1017.51
2022-11-30T11:27:28.018Z,1017.54
2022-11-30T11:28:35.070Z,1017.53
2022-11-30T11:29:27.988Z,1017.54
2022-11-30T11:30:28.009Z,1017.53
2022-11-30T11:31:28.018Z,1017.54
2022-11-30T11:32:27.989Z,1017.53
2022-11-30T11:33:27.952Z,1017.58
2022-11-30T11:34:27.931Z,1017.63
2022-11-30T11:35:27.934Z,1017.57
2022-11-30T11:36:27.927Z,1017.66
2022-11-30T11:37:27.914Z,1017.62
2022-11-30T11:38:27.893Z,1017.64
2022-11-30T11:39:27.877Z,1017.57
2022-11-30T11:40:27.871Z,1017.64
2022-11-30T11:41:27.871Z,1017.66
2022-11-30T11:42:27.867Z,1017.69
2022-11-30T11:43:27.847Z,1017.64
2022-11-30T11:44:35.925Z,1017.64
2022-11-30T11:45:27.823Z,1017.62
2022-11-30T11:46:27.903Z,1017.60
2022-11-30T11:47:27.795Z,1017.57
2022-11-30T11:48:29.190Z,1017.58
2022-11-30T11:49:27.786Z,1017.62
2022-11-30T11:50:58.187Z,1017.57
2022-11-30T11:51:28.750Z,1017.52
2022-11-30T11:52:27.742Z,1017.62
2022-11-30T11:53:27.831Z,1017.59
2022-11-30T11:54:27.704Z,1017.67
2022-11-30T11:55:27.716Z,1017.62
2022-11-30T11:56:27.704Z,1017.68
2022-11-30T11:57:27.697Z,1017.74
2022-11-30T11:58:27.671Z,1017.61
2022-11-30T11:59:32.325Z,1017.67
2022-11-30T12:00:28.637Z,1017.68
2022-11-30T12:01:42.931Z,1017.67
2022-11-30T12:02:28.704Z,1017.72
2022-11-30T12:03:27.621Z,1017.63
2022-11-30T12:04:27.649Z,1017.69
2022-11-30T12:05:27.580Z,1017.66
2022-11-30T12:06:27.577Z,1017.66
2022-11-30T12:07:27.632Z,1017.68